createdAt,value
2024-03-09T00:01:17.899Z,3.60
2024-03-09T00:04:13.747Z,3.63
2024-03-09T00:07:21.824Z,3.61
2024-03-09T00:10:31.622Z,3.58
2024-03-09T00:13:59.412Z,3.52
2024-03-09T00:17:09.800Z,3.50
2024-03-09T00:20:21.223Z,3.49
2024-03-09T00:23:49.200Z,3.48
2024-03-09T00:26:38.924Z,3.48
2024-03-09T00:29:47.270Z,3.48
2024-03-09T00:33:03.193Z,3.43
2024-03-09T00:36:12.654Z,3.42
2024-03-09T00:39:40.274Z,3.43
2024-03-09T00:43:08.463Z,3.41
2024-03-09T00:45:58.453Z,3.39
2024-03-09T00:49:07.287Z,3.38
2024-03-09T00:52:32.078Z,3.37
2024-03-09T00:55:24.616Z,3.37
2024-03-09T00:58:32.200Z,3.32
2024-03-09T01:01:42.446Z,3.35
2024-03-09T01:04:51.994Z,3.37
2024-03-09T01:08:21.051Z,3.37
2024-03-09T01:11:47.510Z,3.35
2024-03-09T01:15:11.771Z,3.35
2024-03-09T01:18:20.570Z,3.34
2024-03-09T01:21:32.303Z,3.29
2024-03-09T01:24:22.157Z,3.27
2024-03-09T01:27:50.202Z,3.25
2024-03-09T01:30:58.300Z,3.19
2024-03-09T01:34:26.103Z,3.16
2024-03-09T01:37:50.245Z,3.12
2024-03-09T01:41:05.937Z,3.03
2024-03-09T01:44:33.632Z,3.03
2024-03-09T01:47:42.036Z,3.01
2024-03-09T01:50:51.570Z,2.95
2024-03-09T01:53:40.726Z,2.91
2024-03-09T01:57:08.561Z,2.82
2024-03-09T02:00:15.998Z,2.83
2024-03-09T02:03:25.901Z,2.86
2024-03-09T02:06:34.010Z,2.86
2024-03-09T02:09:44.301Z,2.85
2024-03-09T02:13:12.182Z,2.86
2024-03-09T02:16:39.986Z,2.85
2024-03-09T02:20:07.727Z,2.85
2024-03-09T02:23:35.380Z,2.87
2024-03-09T02:27:03.310Z,2.86
2024-03-09T02:30:14.994Z,2.87
2024-03-09T02:33:11.365Z,2.84
2024-03-09T02:36:39.612Z,2.81
2024-03-09T02:39:36.923Z,2.83
2024-03-09T02:43:05.186Z,2.88
2024-03-09T02:46:32.983Z,2.88
2024-03-09T02:49:29.101Z,2.89
2024-03-09T02:52:44.622Z,2.89
2024-03-09T02:56:12.515Z,2.89
2024-03-09T02:59:20.392Z,2.86
2024-03-09T03:02:48.056Z,2.78
2024-03-09T03:05:57.652Z,2.73
2024-03-09T03:09:25.495Z,2.67
2024-03-09T03:12:37.611Z,2.61
2024-03-09T03:15:49.006Z,2.58
2024-03-09T03:19:01.218Z,2.56
2024-03-09T03:22:29.050Z,2.57
2024-03-09T03:25:37.461Z,2.57
2024-03-09T03:28:52.638Z,2.57
2024-03-09T03:32:20.585Z,2.56
2024-03-09T03:35:18.367Z,2.58
2024-03-09T03:38:34.244Z,2.59
2024-03-09T03:41:42.986Z,2.60
2024-03-09T03:45:10.828Z,2.57
2024-03-09T03:48:38.690Z,2.52
2024-03-09T03:52:06.514Z,2.47
2024-03-09T03:55:29.491Z,2.41
2024-03-09T03:58:57.218Z,2.35
2024-03-09T04:02:21.553Z,2.30
2024-03-09T04:05:49.172Z,2.27
2024-03-09T04:09:17.126Z,2.26
2024-03-09T04:12:44.912Z,2.27
2024-03-09T04:15:57.311Z,2.29
2024-03-09T04:19:25.074Z,2.31
2024-03-09T04:22:52.998Z,2.33
2024-03-09T04:26:01.274Z,2.37
2024-03-09T04:29:09.802Z,2.38
2024-03-09T04:32:37.503Z,2.40
2024-03-09T04:35:49.810Z,2.37
2024-03-09T04:38:58.298Z,2.33
2024-03-09T04:42:06.515Z,2.30
2024-03-09T04:45:18.168Z,2.27
2024-03-09T04:48:46.274Z,2.23
2024-03-09T04:51:53.193Z,2.19
2024-03-09T04:55:20.957Z,2.15
2024-03-09T04:58:17.492Z,2.14
2024-03-09T05:01:22.333Z,2.09
2024-03-09T05:04:13.310Z,2.06
2024-03-09T05:07:36.830Z,2.02
2024-03-09T05:10:44.672Z,2.01
2024-03-09T05:14:12.811Z,2.03
2024-03-09T05:17:21.449Z,2.06
2024-03-09T05:20:49.140Z,2.12
2024-03-09T05:24:17.218Z,2.21
2024-03-09T05:27:45.325Z,2.25
2024-03-09T05:30:34.044Z,2.28
2024-03-09T05:34:01.948Z,2.29
2024-03-09T05:37:29.596Z,2.34
2024-03-09T05:40:41.295Z,2.35
2024-03-09T05:44:09.367Z,2.40
2024-03-09T05:47:21.008Z,2.47
2024-03-09T05:50:48.716Z,2.56
2024-03-09T05:54:16.425Z,2.61
2024-03-09T05:57:44.266Z,2.67
2024-03-09T06:01:11.987Z,2.73
2024-03-09T06:04:27.615Z,2.75
2024-03-09T06:07:55.532Z,2.76
2024-03-09T06:11:23.466Z,2.74
2024-03-09T06:14:12.217Z,2.76
2024-03-09T06:17:39.910Z,2.76
2024-03-09T06:21:07.712Z,2.78
2024-03-09T06:24:18.788Z,2.82
2024-03-09T06:27:42.172Z,2.89
2024-03-09T06:31:10.412Z,3.00
2024-03-09T06:34:25.821Z,3.13
2024-03-09T06:37:34.011Z,3.29
2024-03-09T06:41:01.850Z,3.46
2024-03-09T06:44:29.711Z,3.61
2024-03-09T06:47:57.625Z,3.75
2024-03-09T06:51:25.471Z,3.86
2024-03-09T06:54:33.447Z,3.92
2024-03-09T06:57:43.465Z,4.06
2024-03-09T07:01:11.355Z,4.22
2024-03-09T07:04:23.652Z,4.32
2024-03-09T07:07:51.317Z,4.47
2024-03-09T07:11:07.356Z,4.56
2024-03-09T07:13:56.359Z,4.67
2024-03-09T07:17:23.992Z,4.80
2024-03-09T07:20:33.427Z,4.93
2024-03-09T07:24:01.449Z,5.05
2024-03-09T07:27:29.209Z,5.12
2024-03-09T07:30:57.100Z,5.31
2024-03-09T07:33:49.073Z,5.47
2024-03-09T07:37:16.801Z,5.65
2024-03-09T07:40:24.752Z,5.81
2024-03-09T07:43:37.520Z,5.94
2024-03-09T07:47:03.110Z,6.10
2024-03-09T07:50:10.970Z,6.30
2024-03-09T07:53:34.660Z,6.52
2024-03-09T07:56:44.224Z,6.70
2024-03-09T08:00:12.144Z,6.87
2024-03-09T08:03:06.009Z,6.96
2024-03-09T08:05:57.269Z,7.16
2024-03-09T08:09:01.731Z,7.29
2024-03-09T08:12:09.972Z,7.49
2024-03-09T08:15:20.117Z,7.72
2024-03-09T08:18:27.932Z,7.93
2024-03-09T08:21:55.774Z,8.13
2024-03-09T08:25:11.267Z,8.37
2024-03-09T08:28:18.965Z,8.61
2024-03-09T08:31:17.370Z,8.75
2024-03-09T08:34:46.065Z,8.89
2024-03-09T08:38:09.835Z,8.96
2024-03-09T08:41:02.814Z,9.11
2024-03-09T08:44:30.709Z,9.15
2024-03-09T08:47:26.956Z,9.17
2024-03-09T08:50:34.980Z,9.36
2024-03-09T08:54:02.985Z,9.50
2024-03-09T08:56:52.048Z,9.56
2024-03-09T09:00:04.071Z,9.67
2024-03-09T09:03:32.039Z,9.87
2024-03-09T09:06:48.388Z,9.97
2024-03-09T09:10:16.526Z,9.97
2024-03-09T09:13:40.994Z,10.07
2024-03-09T09:16:50.033Z,10.11
2024-03-09T09:20:03.182Z,10.18
2024-03-09T09:23:27.955Z,10.14
2024-03-09T09:26:56.076Z,10.07
2024-03-09T09:29:48.263Z,10.19
2024-03-09T09:33:04.343Z,10.41
2024-03-09T09:36:14.814Z,10.60
2024-03-09T09:39:22.775Z,10.67
2024-03-09T09:42:31.559Z,10.67
2024-03-09T09:45:39.383Z,10.69
2024-03-09T09:48:47.387Z,10.72
2024-03-09T09:52:23.648Z,10.95
2024-03-09T09:55:51.273Z,11.22
2024-03-09T09:58:59.202Z,11.38
2024-03-09T10:02:29.315Z,11.30
2024-03-09T10:05:52.497Z,11.56
2024-03-09T10:09:20.236Z,11.78
2024-03-09T10:12:48.112Z,11.82
2024-03-09T10:16:15.867Z,12.18
2024-03-09T10:19:43.719Z,12.37
2024-03-09T10:22:33.458Z,12.51
2024-03-09T10:26:01.180Z,12.71
2024-03-09T10:29:12.892Z,12.96
2024-03-09T10:32:21.189Z,13.21
2024-03-09T10:35:30.383Z,13.25
2024-03-09T10:38:39.499Z,13.40
2024-03-09T10:41:49.300Z,13.47
2024-03-09T10:44:40.177Z,13.26
2024-03-09T10:47:28.814Z,13.15
2024-03-09T10:50:20.634Z,13.12
2024-03-09T10:53:28.932Z,13.33
2024-03-09T10:56:37.060Z,13.22
2024-03-09T10:59:28.931Z,13.21
2024-03-09T11:02:37.054Z,13.19
2024-03-09T11:05:49.387Z,13.24
2024-03-09T11:09:17.247Z,13.44
2024-03-09T11:12:27.421Z,13.67
2024-03-09T11:15:52.591Z,13.87
2024-03-09T11:19:08.488Z,14.11
2024-03-09T11:22:17.905Z,14.30
2024-03-09T11:25:13.677Z,14.42
2024-03-09T11:28:25.276Z,14.38
2024-03-09T11:31:33.253Z,14.47
2024-03-09T11:34:49.339Z,14.58
2024-03-09T11:38:13.773Z,14.64
2024-03-09T11:41:07.414Z,14.78
2024-03-09T11:44:17.991Z,14.79
2024-03-09T11:47:07.411Z,14.78
2024-03-09T11:50:06.126Z,14.89
2024-03-09T11:52:54.874Z,15.22
2024-03-09T11:55:44.428Z,15.43
2024-03-09T11:58:46.846Z,15.57
2024-03-09T12:01:36.409Z,15.69
2024-03-09T12:04:44.584Z,15.63
2024-03-09T12:07:31.426Z,15.81
2024-03-09T12:10:31.480Z,15.95
2024-03-09T12:13:41.273Z,15.95
2024-03-09T12:16:37.102Z,15.87
2024-03-09T12:19:25.446Z,16.02
2024-03-09T12:22:34.468Z,16.08
2024-03-09T12:26:02.373Z,16.24
2024-03-09T12:28:47.667Z,16.32
2024-03-09T12:31:37.702Z,16.48
2024-03-09T12:34:15.026Z,16.57
2024-03-09T12:37:35.420Z,16.64
2024-03-09T12:40:44.068Z,16.84
2024-03-09T12:43:55.434Z,16.95
2024-03-09T12:46:27.506Z,16.96
2024-03-09T12:49:06.337Z,17.06
2024-03-09T12:52:02.412Z,17.11
2024-03-09T12:55:14.455Z,16.96
2024-03-09T12:58:02.780Z,16.95
2024-03-09T13:00:51.694Z,16.79
2024-03-09T13:04:08.016Z,17.18
2024-03-09T13:07:12.985Z,17.48
2024-03-09T13:10:04.534Z,17.62
2024-03-09T13:12:39.193Z,18.02
2024-03-09T13:15:29.411Z,18.27
2024-03-09T13:18:22.122Z,18.61
2024-03-09T13:21:18.240Z,18.82
2024-03-09T13:24:08.110Z,19.19
2024-03-09T13:27:17.827Z,19.43
2024-03-09T13:30:25.602Z,19.04
2024-03-09T13:32:58.732Z,18.92
2024-03-09T13:36:06.908Z,18.88
2024-03-09T13:39:15.578Z,19.00
2024-03-09T13:42:04.838Z,19.13
2024-03-09T13:44:53.414Z,19.16
2024-03-09T13:48:05.467Z,19.07
2024-03-09T13:50:55.957Z,19.20
2024-03-09T13:54:02.245Z,19.15
2024-03-09T13:56:56.386Z,19.70
2024-03-09T13:59:47.238Z,19.98
2024-03-09T14:02:25.571Z,20.35
2024-03-09T14:05:10.782Z,20.23
2024-03-09T14:07:39.282Z,20.35
2024-03-09T14:10:27.785Z,20.91
2024-03-09T14:13:23.722Z,21.06
2024-03-09T14:16:12.360Z,20.96
2024-03-09T14:19:01.126Z,21.00
2024-03-09T14:22:06.462Z,21.29
2024-03-09T14:25:08.294Z,20.86
2024-03-09T14:28:16.074Z,20.83
2024-03-09T14:31:24.236Z,20.98
2024-03-09T14:33:53.536Z,20.34
2024-03-09T14:36:32.520Z,19.96
2024-03-09T14:39:04.103Z,20.21
2024-03-09T14:41:36.246Z,20.45
2024-03-09T14:44:28.628Z,20.96
2024-03-09T14:47:08.248Z,20.91
2024-03-09T14:49:45.712Z,21.02
2024-03-09T14:52:34.569Z,21.33
2024-03-09T14:55:14.912Z,21.73
2024-03-09T14:57:58.941Z,21.49
2024-03-09T15:00:30.377Z,21.43
2024-03-09T15:03:27.227Z,21.39
2024-03-09T15:06:19.968Z,21.69
2024-03-09T15:09:15.815Z,22.27
2024-03-09T15:11:46.949Z,22.36
2024-03-09T15:15:14.728Z,22.46
2024-03-09T15:17:52.852Z,22.58
2024-03-09T15:20:48.909Z,21.92
2024-03-09T15:23:57.486Z,21.71
2024-03-09T15:27:02.388Z,21.71
2024-03-09T15:29:49.978Z,21.54
2024-03-09T15:32:49.261Z,21.16
2024-03-09T15:35:58.033Z,20.36
2024-03-09T15:38:34.691Z,19.79
2024-03-09T15:41:15.700Z,19.42
2024-03-09T15:44:05.731Z,18.93
2024-03-09T15:46:56.199Z,18.62
2024-03-09T15:49:50.150Z,18.15
2024-03-09T15:52:57.867Z,17.64
2024-03-09T15:56:01.213Z,17.27
2024-03-09T15:58:39.538Z,16.94
2024-03-09T16:01:19.336Z,16.53
2024-03-09T16:04:28.980Z,16.18
2024-03-09T16:07:38.840Z,15.74
2024-03-09T16:10:28.074Z,15.27
2024-03-09T16:12:58.210Z,14.90
2024-03-09T16:16:06.128Z,14.49
2024-03-09T16:19:32.239Z,14.19
2024-03-09T16:22:30.788Z,13.95
2024-03-09T16:25:41.459Z,13.75
2024-03-09T16:28:30.382Z,13.55
2024-03-09T16:31:46.865Z,13.33
2024-03-09T16:34:54.677Z,13.18
2024-03-09T16:38:06.146Z,13.04
2024-03-09T16:41:14.564Z,12.91
2024-03-09T16:44:03.350Z,12.83
2024-03-09T16:46:39.514Z,12.75
2024-03-09T16:49:47.307Z,12.67
2024-03-09T16:52:39.528Z,12.60
2024-03-09T16:55:47.803Z,12.55
2024-03-09T16:58:36.769Z,12.49
2024-03-09T17:01:47.116Z,12.41
2024-03-09T17:04:22.106Z,12.36
2024-03-09T17:07:37.744Z,12.29
2024-03-09T17:10:50.075Z,12.20
2024-03-09T17:13:43.529Z,12.14
2024-03-09T17:16:36.257Z,12.10
2024-03-09T17:19:45.038Z,12.03
2024-03-09T17:22:54.305Z,11.96
2024-03-09T17:26:02.905Z,11.91
2024-03-09T17:29:30.989Z,11.88
2024-03-09T17:32:42.813Z,11.84
2024-03-09T17:35:15.418Z,11.82
2024-03-09T17:38:23.469Z,11.79
2024-03-09T17:41:51.437Z,11.77
2024-03-09T17:44:50.192Z,11.74
2024-03-09T17:48:06.277Z,11.70
2024-03-09T17:51:14.779Z,11.66
2024-03-09T17:54:42.496Z,11.59
2024-03-09T17:57:46.552Z,11.55
2024-03-09T18:01:14.310Z,11.49
2024-03-09T18:04:08.135Z,11.46
2024-03-09T18:07:16.050Z,11.39
2024-03-09T18:10:19.492Z,11.33
2024-03-09T18:13:24.591Z,11.25
2024-03-09T18:16:13.566Z,11.16
2024-03-09T18:19:25.535Z,11.09
2024-03-09T18:22:54.123Z,11.09
2024-03-09T18:26:01.932Z,11.09
2024-03-09T18:28:51.102Z,11.05
2024-03-09T18:32:02.615Z,11.01
2024-03-09T18:34:52.478Z,10.96
2024-03-09T18:38:16.982Z,10.91
2024-03-09T18:41:26.623Z,10.88
2024-03-09T18:44:24.164Z,10.82
2024-03-09T18:47:32.496Z,10.75
2024-03-09T18:50:29.639Z,10.72
2024-03-09T18:53:39.536Z,10.69
2024-03-09T18:57:07.386Z,10.66
2024-03-09T19:00:34.972Z,10.62
2024-03-09T19:03:44.741Z,10.59
2024-03-09T19:06:44.969Z,10.53
2024-03-09T19:09:41.277Z,10.51
2024-03-09T19:12:40.584Z,10.49
2024-03-09T19:15:31.299Z,10.50
2024-03-09T19:18:21.622Z,10.49
2024-03-09T19:21:29.671Z,10.50
2024-03-09T19:24:19.917Z,10.49
2024-03-09T19:27:47.851Z,10.49
2024-03-09T19:31:03.119Z,10.51
2024-03-09T19:34:19.531Z,10.53
2024-03-09T19:36:57.673Z,10.56
2024-03-09T19:40:09.517Z,10.58
2024-03-09T19:42:41.355Z,10.59
2024-03-09T19:45:57.585Z,10.60
2024-03-09T19:49:25.500Z,10.57
2024-03-09T19:52:15.014Z,10.58
2024-03-09T19:55:11.280Z,10.60
2024-03-09T19:58:39.067Z,10.60
2024-03-09T20:01:55.029Z,10.59
2024-03-09T20:05:05.215Z,10.58
2024-03-09T20:07:56.978Z,10.56
2024-03-09T20:10:46.904Z,10.53
2024-03-09T20:13:37.712Z,10.51
2024-03-09T20:16:07.866Z,10.50
2024-03-09T20:19:35.921Z,10.44
2024-03-09T20:22:05.787Z,10.43
2024-03-09T20:25:14.569Z,10.42
2024-03-09T20:28:30.505Z,10.41
2024-03-09T20:31:42.006Z,10.38
2024-03-09T20:34:51.630Z,10.34
2024-03-09T20:37:43.818Z,10.30
2024-03-09T20:40:59.091Z,10.29
2024-03-09T20:44:07.331Z,10.25
2024-03-09T20:47:35.056Z,10.18
2024-03-09T20:51:02.689Z,10.13
2024-03-09T20:54:30.461Z,10.06
2024-03-09T20:57:35.089Z,9.98
2024-03-09T21:00:15.768Z,9.93
2024-03-09T21:03:05.249Z,9.89
2024-03-09T21:06:09.833Z,9.83
2024-03-09T21:09:37.048Z,9.73
2024-03-09T21:12:09.067Z,9.65
2024-03-09T21:15:19.514Z,9.57
2024-03-09T21:18:46.359Z,9.50
2024-03-09T21:21:56.300Z,9.43
2024-03-09T21:24:49.066Z,9.40
2024-03-09T21:27:57.396Z,9.37
2024-03-09T21:31:09.222Z,9.33
2024-03-09T21:34:36.986Z,9.25
2024-03-09T21:38:04.610Z,9.17
2024-03-09T21:41:32.248Z,9.09
2024-03-09T21:44:20.005Z,9.04
2024-03-09T21:46:59.922Z,8.98
2024-03-09T21:50:27.763Z,8.85
2024-03-09T21:53:36.033Z,8.77
2024-03-09T21:56:27.002Z,8.71
2024-03-09T21:59:19.439Z,8.66
2024-03-09T22:02:47.174Z,8.58
2024-03-09T22:05:58.926Z,8.50
2024-03-09T22:09:10.434Z,8.43
2024-03-09T22:11:59.113Z,8.38
2024-03-09T22:15:14.750Z,8.38
2024-03-09T22:18:23.653Z,8.38
2024-03-09T22:21:39.604Z,8.42
2024-03-09T22:25:07.401Z,8.46
2024-03-09T22:28:15.594Z,8.48
2024-03-09T22:31:43.508Z,8.47
2024-03-09T22:34:52.079Z,8.48
2024-03-09T22:38:08.533Z,8.49
2024-03-09T22:41:18.464Z,8.53
2024-03-09T22:44:27.401Z,8.54
2024-03-09T22:47:50.834Z,8.56
2024-03-09T22:50:37.548Z,8.56
2024-03-09T22:54:13.820Z,8.46
2024-03-09T22:57:06.126Z,8.49
2024-03-09T23:00:16.947Z,8.48
2024-03-09T23:03:32.332Z,8.49
2024-03-09T23:06:26.005Z,8.48
2024-03-09T23:09:53.787Z,8.50
2024-03-09T23:13:01.097Z,8.53
2024-03-09T23:16:09.248Z,8.55
2024-03-09T23:19:37.118Z,8.54
2024-03-09T23:22:53.257Z,8.57
2024-03-09T23:26:24.518Z,8.61
2024-03-09T23:29:34.778Z,8.63
2024-03-09T23:32:57.357Z,8.66
2024-03-09T23:36:02.509Z,8.69
2024-03-09T23:39:12.509Z,8.70
2024-03-09T23:42:23.567Z,8.71
2024-03-09T23:45:18.921Z,8.76
2024-03-09T23:48:31.338Z,8.78
2024-03-09T23:51:46.285Z,8.76
2024-03-09T23:54:35.567Z,8.75
2024-03-09T23:58:01.811Z,8.72
